createdAt,value
2023-08-04T00:01:40.559Z,15.60
2023-08-04T00:04:07.276Z,15.50
2023-08-04T00:06:33.976Z,15.30
2023-08-04T00:09:00.740Z,15.20
2023-08-04T00:11:27.564Z,15.20
2023-08-04T00:13:54.417Z,15.10
2023-08-04T00:16:21.073Z,15.00
2023-08-04T00:18:47.824Z,14.90
2023-08-04T00:21:14.478Z,14.80
2023-08-04T00:23:41.203Z,14.90
2023-08-04T00:26:07.862Z,14.80
2023-08-04T00:28:34.537Z,14.70
2023-08-04T00:31:01.185Z,14.70
2023-08-04T00:33:27.821Z,14.70
2023-08-04T00:35:54.749Z,14.70
2023-08-04T00:38:21.476Z,14.60
2023-08-04T00:40:48.178Z,14.70
2023-08-04T00:43:14.854Z,14.70
2023-08-04T00:45:41.571Z,14.60
2023-08-04T00:48:09.266Z,14.50
2023-08-04T00:50:36.035Z,14.50
2023-08-04T00:53:03.665Z,14.40
2023-08-04T00:55:30.431Z,14.40
2023-08-04T00:57:57.945Z,14.40
2023-08-04T01:00:24.831Z,14.40
2023-08-04T01:02:51.660Z,14.50
2023-08-04T01:05:18.871Z,14.50
2023-08-04T01:08:08.652Z,14.60
2023-08-04T01:10:47.269Z,14.70
2023-08-04T01:13:15.461Z,14.70
2023-08-04T01:15:42.881Z,14.90
2023-08-04T01:18:09.575Z,15.00
2023-08-04T01:20:36.293Z,15.00
2023-08-04T01:23:03.017Z,15.00
2023-08-04T01:25:32.552Z,15.00
2023-08-04T01:28:01.148Z,15.00
2023-08-04T01:30:28.638Z,15.10
2023-08-04T01:32:55.364Z,15.10
2023-08-04T01:35:24.040Z,15.00
2023-08-04T01:37:50.792Z,15.00
2023-08-04T01:40:17.535Z,15.00
2023-08-04T01:42:44.239Z,15.10
2023-08-04T01:45:11.024Z,15.00
2023-08-04T01:47:38.817Z,15.00
2023-08-04T01:50:07.758Z,15.10
2023-08-04T01:52:35.353Z,15.20
2023-08-04T01:55:02.244Z,15.20
2023-08-04T01:57:29.022Z,15.40
2023-08-04T01:59:55.646Z,15.30
2023-08-04T02:02:22.617Z,15.30
2023-08-04T02:04:49.906Z,15.40
2023-08-04T02:07:16.670Z,15.30
2023-08-04T02:09:43.368Z,15.40
2023-08-04T02:12:10.002Z,15.40
2023-08-04T02:14:36.735Z,15.40
2023-08-04T02:17:03.499Z,15.50
2023-08-04T02:19:30.347Z,15.70
2023-08-04T02:21:57.089Z,15.60
2023-08-04T02:24:23.745Z,15.60
2023-08-04T02:26:50.490Z,15.50
2023-08-04T02:29:17.127Z,15.50
2023-08-04T02:31:43.874Z,15.40
2023-08-04T02:34:10.653Z,15.40
2023-08-04T02:36:37.449Z,15.40
2023-08-04T02:39:04.187Z,15.60
2023-08-04T02:41:30.840Z,15.60
2023-08-04T02:43:57.577Z,15.70
2023-08-04T02:46:26.902Z,15.70
2023-08-04T02:48:54.399Z,15.70
2023-08-04T02:51:21.088Z,15.60
2023-08-04T02:53:48.240Z,15.60
2023-08-04T02:56:15.932Z,15.60
2023-08-04T02:58:43.196Z,15.70
2023-08-04T03:01:10.049Z,15.70
2023-08-04T03:03:36.802Z,15.90
2023-08-04T03:06:03.504Z,16.00
2023-08-04T03:08:30.875Z,15.80
2023-08-04T03:10:57.711Z,15.50
2023-08-04T03:13:24.469Z,15.30
2023-08-04T03:15:54.925Z,15.20
2023-08-04T03:18:21.628Z,15.20
2023-08-04T03:20:48.292Z,15.00
2023-08-04T03:23:14.948Z,15.10
2023-08-04T03:25:41.603Z,14.90
2023-08-04T03:28:08.293Z,14.90
2023-08-04T03:30:35.088Z,14.80
2023-08-04T03:33:01.970Z,14.80
2023-08-04T03:35:28.690Z,15.00
2023-08-04T03:37:55.404Z,15.10
2023-08-04T03:40:22.104Z,14.90
2023-08-04T03:42:48.799Z,14.90
2023-08-04T03:45:15.554Z,15.00
2023-08-04T03:47:42.297Z,14.90
2023-08-04T03:50:09.117Z,14.80
2023-08-04T03:52:35.886Z,14.70
2023-08-04T03:55:02.578Z,14.70
2023-08-04T03:57:29.369Z,14.80
2023-08-04T03:59:56.088Z,14.90
2023-08-04T04:02:23.105Z,15.10
2023-08-04T04:04:49.782Z,15.10
2023-08-04T04:07:16.510Z,15.00
2023-08-04T04:09:43.130Z,15.20
2023-08-04T04:12:09.857Z,15.20
2023-08-04T04:14:36.586Z,15.20
2023-08-04T04:17:03.924Z,15.10
2023-08-04T04:19:30.594Z,15.00
2023-08-04T04:21:57.265Z,15.00
2023-08-04T04:24:23.917Z,14.90
2023-08-04T04:26:50.615Z,14.90
2023-08-04T04:29:17.308Z,14.80
2023-08-04T04:31:43.983Z,14.80
2023-08-04T04:34:10.664Z,14.80
2023-08-04T04:36:37.317Z,14.90
2023-08-04T04:39:04.950Z,14.80
2023-08-04T04:41:31.691Z,14.80
2023-08-04T04:43:58.385Z,14.70
2023-08-04T04:46:25.146Z,14.70
2023-08-04T04:48:51.799Z,14.80
2023-08-04T04:51:18.543Z,14.90
2023-08-04T04:53:45.281Z,15.00
2023-08-04T04:56:12.126Z,14.90
2023-08-04T04:58:38.939Z,15.20
2023-08-04T05:01:06.290Z,15.40
2023-08-04T05:03:33.005Z,15.30
2023-08-04T05:05:59.672Z,15.30
2023-08-04T05:08:26.433Z,15.20
2023-08-04T05:10:53.608Z,15.30
2023-08-04T05:13:20.266Z,15.40
2023-08-04T05:15:47.389Z,15.50
2023-08-04T05:18:14.238Z,15.50
2023-08-04T05:20:40.871Z,15.50
2023-08-04T05:23:07.492Z,15.50
2023-08-04T05:25:34.231Z,15.50
2023-08-04T05:28:18.605Z,15.50
2023-08-04T05:30:45.535Z,15.60
2023-08-04T05:33:12.271Z,15.90
2023-08-04T05:35:39.955Z,16.00
2023-08-04T05:38:06.666Z,16.00
2023-08-04T05:40:33.573Z,16.10
2023-08-04T05:43:00.268Z,16.30
2023-08-04T05:45:26.946Z,16.40
2023-08-04T05:47:53.668Z,16.60
2023-08-04T05:50:20.360Z,16.80
2023-08-04T05:52:46.993Z,16.80
2023-08-04T05:55:13.707Z,16.60
2023-08-04T05:57:40.395Z,16.50
2023-08-04T06:00:08.375Z,16.40
2023-08-04T06:02:35.186Z,16.40
2023-08-04T06:05:01.897Z,16.50
2023-08-04T06:07:28.543Z,16.50
2023-08-04T06:09:55.187Z,16.60
2023-08-04T06:12:21.842Z,16.50
2023-08-04T06:14:48.535Z,16.50
2023-08-04T06:17:15.270Z,16.80
2023-08-04T06:19:45.280Z,16.90
2023-08-04T06:22:14.490Z,17.20
2023-08-04T06:24:41.215Z,17.30
2023-08-04T06:27:08.720Z,17.50
2023-08-04T06:29:35.766Z,17.70
2023-08-04T06:32:02.985Z,17.90
2023-08-04T06:34:29.638Z,18.10
2023-08-04T06:36:56.261Z,18.10
2023-08-04T06:39:23.413Z,17.90
2023-08-04T06:41:50.647Z,17.80
2023-08-04T06:44:17.530Z,18.00
2023-08-04T06:46:44.357Z,18.00
2023-08-04T06:49:11.190Z,18.10
2023-08-04T06:51:37.871Z,18.00
2023-08-04T06:54:04.520Z,18.20
2023-08-04T06:56:31.229Z,18.40
2023-08-04T06:58:57.910Z,19.10
2023-08-04T07:01:24.618Z,18.50
2023-08-04T07:03:51.312Z,18.20
2023-08-04T07:06:17.982Z,18.10
2023-08-04T07:08:44.627Z,18.00
2023-08-04T07:11:18.083Z,18.20
2023-08-04T07:13:45.304Z,18.40
2023-08-04T07:16:12.088Z,18.60
2023-08-04T07:18:39.122Z,18.70
2023-08-04T07:21:09.369Z,19.00
2023-08-04T07:23:36.097Z,19.20
2023-08-04T07:26:06.380Z,19.40
2023-08-04T07:28:33.316Z,19.70
2023-08-04T07:31:03.715Z,19.90
2023-08-04T07:33:30.398Z,20.10
2023-08-04T07:35:59.599Z,20.10
2023-08-04T07:38:28.911Z,20.10
2023-08-04T07:40:56.232Z,20.00
2023-08-04T07:43:23.596Z,20.30
2023-08-04T07:45:50.330Z,20.70
2023-08-04T07:48:16.976Z,20.90
2023-08-04T07:50:45.244Z,21.00
2023-08-04T07:53:11.944Z,21.60
2023-08-04T07:55:40.508Z,22.20
2023-08-04T07:58:08.370Z,22.80
2023-08-04T08:00:35.580Z,22.90
2023-08-04T08:03:02.433Z,23.20
2023-08-04T08:05:29.289Z,22.80
2023-08-04T08:07:55.965Z,22.60
2023-08-04T08:10:24.360Z,22.30
2023-08-04T08:12:52.288Z,22.20
2023-08-04T08:15:18.996Z,22.10
2023-08-04T08:17:45.778Z,21.80
2023-08-04T08:20:12.486Z,22.00
2023-08-04T08:22:39.235Z,22.40
2023-08-04T08:25:06.170Z,22.50
2023-08-04T08:27:32.860Z,22.20
2023-08-04T08:29:59.572Z,22.00
2023-08-04T08:32:26.293Z,21.90
2023-08-04T08:34:52.921Z,21.90
2023-08-04T08:37:19.655Z,21.40
2023-08-04T08:39:46.317Z,21.10
2023-08-04T08:42:13.072Z,20.70
2023-08-04T08:44:39.760Z,20.80
2023-08-04T08:47:06.592Z,20.70
2023-08-04T08:49:38.172Z,20.80
2023-08-04T08:52:07.935Z,21.10
2023-08-04T08:54:35.792Z,21.40
2023-08-04T08:57:02.547Z,21.60
2023-08-04T08:59:29.263Z,21.70
2023-08-04T09:01:56.601Z,23.00
2023-08-04T09:04:23.437Z,24.60
2023-08-04T09:06:50.116Z,24.70
2023-08-04T09:09:17.438Z,23.90
2023-08-04T09:11:44.180Z,23.50
2023-08-04T09:14:11.982Z,22.90
2023-08-04T09:16:40.383Z,21.70
2023-08-04T09:19:08.143Z,21.40
2023-08-04T09:21:35.850Z,21.90
2023-08-04T09:24:03.785Z,22.40
2023-08-04T09:26:50.760Z,22.60
2023-08-04T09:29:17.530Z,22.90
2023-08-04T09:31:47.450Z,23.70
2023-08-04T09:34:14.414Z,24.00
2023-08-04T09:36:48.188Z,23.60
2023-08-04T09:39:15.200Z,23.20
2023-08-04T09:41:43.774Z,23.70
2023-08-04T09:44:11.505Z,24.60
2023-08-04T09:46:58.594Z,25.50
2023-08-04T09:49:26.226Z,25.40
2023-08-04T09:51:56.918Z,25.60
2023-08-04T09:54:23.767Z,25.10
2023-08-04T09:56:51.253Z,25.20
2023-08-04T09:59:19.122Z,23.90
2023-08-04T10:01:46.124Z,23.90
2023-08-04T10:04:13.778Z,24.70
2023-08-04T10:06:40.786Z,26.30
2023-08-04T10:09:07.701Z,26.70
2023-08-04T10:11:34.425Z,27.80
2023-08-04T10:14:01.844Z,28.90
2023-08-04T10:16:34.225Z,29.00
2023-08-04T10:19:04.574Z,27.00
2023-08-04T10:21:38.942Z,24.80
2023-08-04T10:24:09.048Z,24.20
2023-08-04T10:26:43.990Z,24.10
2023-08-04T10:29:10.822Z,25.80
2023-08-04T10:31:44.274Z,24.90
2023-08-04T10:34:23.057Z,25.10
2023-08-04T10:36:58.426Z,25.30
2023-08-04T10:39:31.535Z,28.10
2023-08-04T10:41:59.365Z,28.70
2023-08-04T10:44:47.038Z,28.60
2023-08-04T10:47:13.842Z,29.90
2023-08-04T10:49:41.538Z,29.50
2023-08-04T10:52:08.318Z,28.60
2023-08-04T10:54:35.028Z,29.60
2023-08-04T10:57:01.708Z,30.60
2023-08-04T10:59:30.141Z,30.60
2023-08-04T11:01:56.946Z,30.60
2023-08-04T11:04:24.937Z,29.40
2023-08-04T11:06:52.007Z,28.00
2023-08-04T11:09:18.682Z,25.90
2023-08-04T11:11:46.437Z,25.80
2023-08-04T11:14:13.816Z,26.80
2023-08-04T11:16:40.658Z,26.80
2023-08-04T11:19:07.908Z,26.10
2023-08-04T11:21:34.541Z,26.00
2023-08-04T11:24:01.225Z,25.50
2023-08-04T11:26:28.621Z,24.90
2023-08-04T11:28:59.466Z,23.90
2023-08-04T11:31:27.357Z,23.90
2023-08-04T11:33:54.581Z,24.00
2023-08-04T11:36:21.336Z,24.20
2023-08-04T11:38:47.968Z,23.70
2023-08-04T11:41:14.843Z,24.10
2023-08-04T11:43:41.678Z,24.10
2023-08-04T11:46:08.731Z,25.50
2023-08-04T11:48:36.261Z,27.00
2023-08-04T11:51:03.059Z,28.70
2023-08-04T11:53:29.773Z,30.40
2023-08-04T11:55:57.418Z,31.30
2023-08-04T11:58:30.517Z,30.70
2023-08-04T12:00:57.405Z,30.10
2023-08-04T12:03:24.239Z,28.20
2023-08-04T12:05:52.291Z,26.50
2023-08-04T12:08:19.102Z,25.80
2023-08-04T12:10:59.959Z,24.90
2023-08-04T12:13:33.869Z,24.30
2023-08-04T12:16:00.631Z,23.80
2023-08-04T12:18:28.118Z,23.70
2023-08-04T12:20:55.087Z,23.80
2023-08-04T12:23:21.881Z,23.10
2023-08-04T12:25:48.685Z,23.50
2023-08-04T12:28:16.706Z,23.30
2023-08-04T12:30:43.446Z,23.10
2023-08-04T12:33:10.256Z,24.20
2023-08-04T12:35:37.054Z,25.60
2023-08-04T12:38:05.405Z,25.60
2023-08-04T12:40:35.739Z,25.50
2023-08-04T12:43:02.513Z,26.90
2023-08-04T12:45:29.177Z,29.60
2023-08-04T12:47:56.024Z,28.50
2023-08-04T12:50:22.724Z,30.70
2023-08-04T12:52:49.566Z,31.60
2023-08-04T12:55:16.292Z,32.40
2023-08-04T12:57:42.920Z,31.60
2023-08-04T13:00:09.764Z,31.60
2023-08-04T13:02:36.612Z,31.70
2023-08-04T13:05:04.298Z,31.40
2023-08-04T13:07:31.094Z,31.10
2023-08-04T13:09:57.737Z,28.70
2023-08-04T13:12:24.382Z,27.60
2023-08-04T13:14:51.149Z,26.60
2023-08-04T13:17:17.965Z,26.30
2023-08-04T13:19:48.070Z,26.50
2023-08-04T13:22:14.775Z,28.10
2023-08-04T13:24:41.436Z,28.10
2023-08-04T13:27:09.768Z,26.40
2023-08-04T13:29:37.859Z,26.10
2023-08-04T13:32:05.047Z,26.50
2023-08-04T13:34:31.866Z,26.60
2023-08-04T13:36:58.623Z,26.50
2023-08-04T13:39:25.641Z,25.50
2023-08-04T13:41:52.304Z,24.40
2023-08-04T13:44:19.006Z,24.20
2023-08-04T13:46:45.723Z,24.00
2023-08-04T13:49:12.461Z,24.30
2023-08-04T13:51:39.216Z,24.40
2023-08-04T13:54:05.887Z,25.10
2023-08-04T13:56:33.377Z,27.00
2023-08-04T13:59:00.695Z,28.00
2023-08-04T14:01:29.178Z,26.10
2023-08-04T14:03:55.900Z,25.30
2023-08-04T14:06:22.622Z,25.60
2023-08-04T14:08:49.400Z,26.40
2023-08-04T14:11:17.228Z,26.50
2023-08-04T14:13:44.127Z,27.20
2023-08-04T14:16:12.476Z,28.30
2023-08-04T14:18:39.612Z,29.50
2023-08-04T14:21:06.501Z,31.20
2023-08-04T14:23:33.193Z,32.40
2023-08-04T14:25:59.886Z,33.80
2023-08-04T14:28:26.664Z,32.40
2023-08-04T14:30:53.623Z,30.30
2023-08-04T14:33:20.448Z,28.60
2023-08-04T14:35:47.282Z,27.30
2023-08-04T14:38:15.954Z,27.10
2023-08-04T14:40:42.763Z,26.30
2023-08-04T14:43:09.481Z,25.80
2023-08-04T14:45:37.960Z,25.50
2023-08-04T14:48:05.184Z,25.40
2023-08-04T14:50:31.985Z,24.90
2023-08-04T14:52:58.737Z,24.00
2023-08-04T14:55:25.425Z,23.10
2023-08-04T14:57:52.060Z,22.60
2023-08-04T15:00:18.969Z,22.50
2023-08-04T15:02:45.694Z,22.50
2023-08-04T15:05:12.471Z,22.40
2023-08-04T15:07:39.288Z,22.20
2023-08-04T15:10:06.334Z,22.00
2023-08-04T15:12:33.001Z,22.20
2023-08-04T15:15:00.141Z,22.40
2023-08-04T15:17:27.320Z,22.70
2023-08-04T15:19:54.222Z,24.20
2023-08-04T15:22:20.927Z,25.40
2023-08-04T15:24:47.692Z,25.70
2023-08-04T15:27:17.380Z,25.60
2023-08-04T15:29:44.367Z,25.60
2023-08-04T15:32:11.318Z,25.30
2023-08-04T15:34:38.126Z,24.60
2023-08-04T15:37:04.842Z,24.40
2023-08-04T15:39:31.473Z,24.00
2023-08-04T15:41:58.124Z,24.50
2023-08-04T15:44:24.761Z,25.40
2023-08-04T15:46:51.453Z,25.30
2023-08-04T15:49:18.129Z,25.90
2023-08-04T15:51:45.053Z,25.60
2023-08-04T15:54:11.674Z,25.50
2023-08-04T15:56:38.347Z,24.50
2023-08-04T15:59:05.134Z,24.20
2023-08-04T16:01:31.868Z,23.70
2023-08-04T16:03:58.615Z,23.60
2023-08-04T16:06:25.334Z,24.10
2023-08-04T16:08:52.002Z,24.10
2023-08-04T16:11:18.794Z,23.70
2023-08-04T16:13:45.574Z,23.40
2023-08-04T16:16:12.374Z,23.10
2023-08-04T16:18:39.633Z,23.30
2023-08-04T16:21:07.113Z,23.20
2023-08-04T16:23:34.174Z,22.90
2023-08-04T16:26:00.867Z,22.70
2023-08-04T16:28:30.408Z,22.50
2023-08-04T16:30:58.720Z,22.20
2023-08-04T16:33:25.417Z,22.00
2023-08-04T16:35:52.115Z,21.70
2023-08-04T16:38:18.850Z,21.50
2023-08-04T16:40:45.536Z,21.40
2023-08-04T16:43:12.369Z,21.30
2023-08-04T16:45:39.129Z,21.30
2023-08-04T16:48:05.915Z,21.30
2023-08-04T16:50:33.567Z,21.30
2023-08-04T16:53:00.199Z,21.10
2023-08-04T16:55:27.060Z,20.90
2023-08-04T16:57:53.838Z,20.90
2023-08-04T17:00:20.548Z,20.80
2023-08-04T17:02:47.256Z,20.80
2023-08-04T17:05:14.213Z,20.80
2023-08-04T17:07:40.857Z,20.80
2023-08-04T17:10:07.819Z,20.80
2023-08-04T17:12:34.565Z,20.80
2023-08-04T17:15:01.382Z,20.80
2023-08-04T17:17:28.087Z,20.80
2023-08-04T17:19:56.081Z,20.80
2023-08-04T17:22:22.740Z,20.70
2023-08-04T17:24:49.413Z,20.80
2023-08-04T17:27:16.120Z,20.80
2023-08-04T17:29:42.829Z,20.70
2023-08-04T17:32:10.588Z,20.50
2023-08-04T17:34:38.315Z,20.60
2023-08-04T17:37:05.056Z,20.50
2023-08-04T17:39:31.760Z,20.50
2023-08-04T17:41:58.428Z,20.60
2023-08-04T17:44:25.211Z,20.60
2023-08-04T17:46:52.276Z,20.70
2023-08-04T17:49:19.943Z,20.80
2023-08-04T17:51:46.909Z,20.60
2023-08-04T17:54:13.693Z,20.50
2023-08-04T17:56:40.424Z,20.40
2023-08-04T17:59:07.120Z,20.50
2023-08-04T18:01:33.839Z,20.60
2023-08-04T18:04:00.567Z,20.30
2023-08-04T18:06:27.263Z,20.50
2023-08-04T18:08:53.972Z,20.50
2023-08-04T18:11:20.662Z,20.40
2023-08-04T18:13:47.374Z,20.30
2023-08-04T18:16:14.720Z,20.10
2023-08-04T18:18:41.477Z,20.10
2023-08-04T18:21:08.194Z,20.00
2023-08-04T18:23:34.956Z,19.90
2023-08-04T18:26:01.660Z,20.00
2023-08-04T18:28:32.053Z,19.90
2023-08-04T18:30:58.923Z,19.90
2023-08-04T18:33:25.657Z,19.80
2023-08-04T18:35:53.327Z,19.70
2023-08-04T18:38:22.540Z,19.60
2023-08-04T18:40:49.774Z,19.70
2023-08-04T18:43:16.616Z,19.60
2023-08-04T18:45:44.561Z,19.60
2023-08-04T18:48:11.365Z,19.60
2023-08-04T18:50:38.202Z,19.50
2023-08-04T18:53:04.863Z,19.50
2023-08-04T18:55:31.665Z,19.40
2023-08-04T18:57:58.309Z,19.40
2023-08-04T19:00:27.950Z,19.40
2023-08-04T19:02:55.049Z,19.50
2023-08-04T19:05:21.853Z,19.30
2023-08-04T19:07:48.551Z,19.10
2023-08-04T19:10:15.372Z,19.20
2023-08-04T19:12:42.079Z,19.10
2023-08-04T19:15:09.223Z,19.00
2023-08-04T19:17:35.989Z,19.10
2023-08-04T19:20:03.231Z,19.00
2023-08-04T19:22:29.886Z,19.00
2023-08-04T19:24:56.606Z,19.10
2023-08-04T19:27:23.430Z,19.10
2023-08-04T19:29:50.134Z,19.10
2023-08-04T19:32:16.805Z,19.10
2023-08-04T19:34:43.473Z,19.10
2023-08-04T19:37:10.212Z,19.10
2023-08-04T19:39:38.107Z,18.90
2023-08-04T19:42:09.141Z,19.00
2023-08-04T19:44:36.390Z,18.80
2023-08-04T19:47:03.428Z,18.90
2023-08-04T19:49:30.177Z,19.00
2023-08-04T19:51:56.818Z,18.90
2023-08-04T19:54:23.511Z,18.70
2023-08-04T19:56:51.480Z,18.80
2023-08-04T19:59:18.441Z,18.80
2023-08-04T20:01:45.254Z,18.70
2023-08-04T20:04:12.078Z,18.70
2023-08-04T20:06:38.816Z,18.90
2023-08-04T20:09:05.623Z,18.70
2023-08-04T20:11:32.520Z,18.60
2023-08-04T20:13:59.240Z,18.60
2023-08-04T20:16:26.017Z,18.70
2023-08-04T20:18:52.800Z,18.80
2023-08-04T20:21:21.934Z,18.70
2023-08-04T20:23:48.987Z,18.50
2023-08-04T20:26:15.961Z,18.50
2023-08-04T20:28:43.575Z,18.60
2023-08-04T20:31:13.850Z,18.60
2023-08-04T20:33:40.654Z,18.60
2023-08-04T20:36:14.378Z,18.50
2023-08-04T20:38:41.481Z,18.70
2023-08-04T20:41:09.458Z,18.50
2023-08-04T20:43:37.028Z,18.60
2023-08-04T20:46:03.935Z,18.50
2023-08-04T20:48:30.979Z,18.50
2023-08-04T20:50:58.120Z,18.50
2023-08-04T20:53:25.013Z,18.50
2023-08-04T20:55:55.301Z,18.50
2023-08-04T20:58:23.058Z,18.30
2023-08-04T21:00:49.770Z,18.50
2023-08-04T21:03:16.725Z,18.40
2023-08-04T21:05:43.437Z,18.40
2023-08-04T21:08:10.296Z,18.40
2023-08-04T21:10:37.048Z,18.40
2023-08-04T21:13:06.934Z,18.30
2023-08-04T21:15:34.965Z,18.50
2023-08-04T21:18:02.953Z,18.40
2023-08-04T21:20:29.790Z,18.20
2023-08-04T21:22:56.493Z,18.30
2023-08-04T21:25:23.164Z,18.20
2023-08-04T21:27:50.363Z,18.10
2023-08-04T21:30:17.311Z,18.00
2023-08-04T21:32:44.208Z,18.00
2023-08-04T21:35:11.510Z,18.30
2023-08-04T21:37:38.192Z,18.30
2023-08-04T21:40:05.112Z,18.20
2023-08-04T21:42:31.863Z,18.10
2023-08-04T21:44:58.607Z,18.00
2023-08-04T21:47:25.455Z,18.00
2023-08-04T21:49:52.236Z,18.00
2023-08-04T21:52:18.885Z,17.80
2023-08-04T21:54:45.545Z,17.80
2023-08-04T21:57:12.262Z,17.80
2023-08-04T21:59:38.978Z,17.70
2023-08-04T22:02:06.412Z,17.60
2023-08-04T22:04:34.553Z,17.60
2023-08-04T22:07:03.221Z,17.50
2023-08-04T22:09:30.371Z,17.50
2023-08-04T22:11:57.489Z,17.50
2023-08-04T22:14:25.013Z,17.50
2023-08-04T22:16:52.036Z,17.70
2023-08-04T22:19:20.854Z,17.50
2023-08-04T22:21:48.170Z,17.50
2023-08-04T22:24:17.127Z,17.60
2023-08-04T22:26:44.896Z,17.70
2023-08-04T22:29:12.094Z,17.60
2023-08-04T22:31:38.919Z,17.50
2023-08-04T22:34:05.698Z,17.60
2023-08-04T22:36:32.389Z,17.50
2023-08-04T22:38:59.123Z,17.60
2023-08-04T22:41:25.882Z,17.60
2023-08-04T22:43:52.785Z,17.40
2023-08-04T22:46:19.613Z,17.40
2023-08-04T22:48:46.367Z,17.50
2023-08-04T22:51:13.392Z,17.40
2023-08-04T22:53:40.215Z,17.40
2023-08-04T22:56:07.057Z,17.30
2023-08-04T22:58:33.842Z,17.20
2023-08-04T23:01:04.235Z,17.20
2023-08-04T23:03:30.951Z,17.30
2023-08-04T23:05:58.852Z,17.30
2023-08-04T23:08:25.603Z,17.40
2023-08-04T23:10:56.121Z,17.50
2023-08-04T23:13:23.136Z,17.40
2023-08-04T23:15:50.015Z,17.50
2023-08-04T23:18:16.777Z,17.50
2023-08-04T23:20:47.057Z,17.40
2023-08-04T23:23:13.850Z,17.20
2023-08-04T23:25:42.997Z,17.20
2023-08-04T23:28:10.002Z,17.10
2023-08-04T23:30:43.847Z,17.30
2023-08-04T23:33:11.352Z,17.30
2023-08-04T23:35:38.013Z,17.20
2023-08-04T23:38:05.027Z,17.20
2023-08-04T23:40:31.807Z,17.20
2023-08-04T23:42:58.525Z,17.10
2023-08-04T23:45:25.214Z,17.10
2023-08-04T23:47:52.097Z,17.10
2023-08-04T23:50:18.791Z,17.20
2023-08-04T23:52:45.449Z,17.10
2023-08-04T23:55:12.145Z,16.90
2023-08-04T23:57:38.897Z,16.90
